Time;durP1;ratioP1;P1;durP2;ratioP2;P2;SDS_P1;SDS_P2;PMS_P1;PMS_P2;Temp;Humidity;BMP_temperature;BMP_pressure;BME280_temperature;BME280_humidity;BME280_pressure;Samples;Min_cycle;Max_cycle;Signal;HPM_P1;HPM_P2
2021/04/16 00:01:10;;;;;;;8.68;4.88;;;2.80;84.90;;;;;;5068703;28;20739;-36
2021/04/16 00:03:45;;;;;;;6.15;4.03;;;2.90;85.00;;;;;;5062624;28;20052;-36
2021/04/16 00:06:15;;;;;;;7.60;4.07;;;2.80;85.90;;;;;;5069824;28;20044;-36
2021/04/16 00:08:47;;;;;;;7.55;4.72;;;2.80;85.50;;;;;;5070200;28;20044;-36
2021/04/16 00:11:26;;;;;;;6.75;4.45;;;2.80;85.90;;;;;;5069632;28;20048;-37
2021/04/16 00:13:59;;;;;;;6.47;4.50;;;2.80;86.40;;;;;;5069599;28;20063;-36
2021/04/16 00:16:29;;;;;;;6.75;3.95;;;2.70;85.80;;;;;;5068301;28;20053;-36
2021/04/16 00:19:07;;;;;;;7.10;4.20;;;2.70;86.10;;;;;;5069540;28;20045;-36
2021/04/16 00:21:39;;;;;;;8.52;4.35;;;2.70;86.10;;;;;;5069070;28;20052;-36
2021/04/16 00:24:08;;;;;;;7.68;4.25;;;2.60;86.00;;;;;;5068762;28;20126;-36
2021/04/16 00:26:35;;;;;;;9.13;4.57;;;2.60;85.50;;;;;;5068611;28;20163;-37
2021/04/16 00:29:02;;;;;;;6.78;4.32;;;2.60;86.20;;;;;;5064757;28;20072;-36
2021/04/16 00:31:32;;;;;;;6.55;3.97;;;2.60;86.90;;;;;;5067410;28;20044;-36
2021/04/16 00:34:02;;;;;;;8.00;4.45;;;2.50;86.20;;;;;;5066780;28;20048;-36
2021/04/16 00:36:34;;;;;;;11.57;4.40;;;2.50;87.50;;;;;;5065788;28;20079;-36
2021/04/16 00:39:05;;;;;;;6.53;4.13;;;2.50;87.30;;;;;;5068735;28;20055;-36
2021/04/16 00:41:34;;;;;;;7.85;4.25;;;2.50;86.90;;;;;;5068877;28;20068;-36
2021/04/16 00:44:04;;;;;;;5.75;3.78;;;2.40;87.00;;;;;;5067624;28;20055;-36
2021/04/16 00:46:44;;;;;;;7.63;4.28;;;2.40;87.60;;;;;;5065900;28;20072;-36
2021/04/16 00:49:28;;;;;;;7.65;4.20;;;2.40;87.90;;;;;;5068645;28;20045;-36
2021/04/16 00:52:04;;;;;;;7.82;4.15;;;2.40;88.80;;;;;;5071773;28;20097;-36
2021/04/16 00:54:39;;;;;;;9.45;4.63;;;2.40;88.00;;;;;;5068085;28;20056;-36
2021/04/16 00:57:12;;;;;;;7.85;4.18;;;2.40;88.40;;;;;;5058096;28;20075;-36
2021/04/16 00:59:57;;;;;;;8.75;4.03;;;2.30;88.30;;;;;;5075424;28;20036;-36
2021/04/16 01:02:27;;;;;;;7.32;4.15;;;2.40;88.90;;;;;;5067847;28;20135;-36
2021/04/16 01:04:58;;;;;;;7.65;3.70;;;2.30;88.30;;;;;;5067729;28;20578;-36
2021/04/16 01:07:32;;;;;;;10.40;4.57;;;2.20;87.40;;;;;;5065200;28;20060;-37
2021/04/16 01:10:02;;;;;;;10.10;4.05;;;2.20;87.90;;;;;;5049483;28;20045;-36
2021/04/16 01:12:29;;;;;;;6.30;3.95;;;2.20;88.50;;;;;;5060263;28;20049;-36
2021/04/16 01:15:08;;;;;;;5.97;4.20;;;2.10;88.10;;;;;;5068593;28;20049;-36
2021/04/16 01:17:35;;;;;;;8.00;4.25;;;2.10;88.50;;;;;;5066867;28;20117;-36
2021/04/16 01:20:13;;;;;;;8.00;4.10;;;2.10;88.40;;;;;;5063436;28;20467;-36
2021/04/16 01:23:05;;;;;;;10.55;4.80;;;2.10;88.30;;;;;;5066536;28;20550;-36
2021/04/16 01:25:33;;;;;;;7.47;3.75;;;2.10;89.50;;;;;;5068086;28;20144;-36
2021/04/16 01:28:04;;;;;;;9.23;4.00;;;2.00;89.20;;;;;;5067180;28;20549;-37
2021/04/16 01:30:51;;;;;;;6.07;3.95;;;2.00;89.00;;;;;;5067085;28;20044;-36
2021/04/16 01:33:24;;;;;;;7.82;3.72;;;1.90;89.00;;;;;;5067793;28;20127;-39
2021/04/16 01:35:52;;;;;;;7.38;4.18;;;1.90;88.50;;;;;;5066789;28;20049;-37
2021/04/16 01:38:24;;;;;;;7.82;3.90;;;1.90;88.80;;;;;;5064518;28;20131;-37
2021/04/16 01:40:50;;;;;;;8.43;4.30;;;1.90;89.50;;;;;;5062828;28;20064;-36
2021/04/16 01:43:30;;;;;;;6.78;3.60;;;1.80;88.50;;;;;;5066803;28;20055;-36
2021/04/16 01:46:13;;;;;;;6.47;3.95;;;1.80;88.70;;;;;;5066348;28;20060;-37
2021/04/16 01:48:46;;;;;;;9.68;3.88;;;1.70;88.60;;;;;;5066013;28;20565;-37
2021/04/16 01:51:20;;;;;;;6.57;3.85;;;1.70;89.70;;;;;;5065806;28;20041;-37
2021/04/16 01:53:47;;;;;;;9.60;4.15;;;1.70;89.80;;;;;;5067278;28;20125;-37
2021/04/16 01:56:16;;;;;;;7.10;4.30;;;1.60;89.60;;;;;;5066458;28;20056;-37
2021/04/16 01:58:45;;;;;;;8.20;4.22;;;1.60;89.70;;;;;;5063686;28;20052;-37
2021/04/16 02:01:15;;;;;;;10.45;4.57;;;1.60;89.90;;;;;;5066830;28;20053;-37
2021/04/16 02:03:41;;;;;;;7.22;4.20;;;1.50;89.60;;;;;;5066820;28;20075;-36
2021/04/16 02:06:09;;;;;;;6.50;4.55;;;1.50;90.10;;;;;;5068667;28;20077;-36
2021/04/16 02:08:38;;;;;;;9.32;4.07;;;1.50;89.80;;;;;;5066625;28;20139;-37
2021/04/16 02:11:07;;;;;;;5.75;3.80;;;1.40;89.40;;;;;;5060699;28;20069;-36
2021/04/16 02:13:37;;;;;;;6.97;3.95;;;1.40;89.10;;;;;;5046948;28;20418;-36
2021/04/16 02:16:04;;;;;;;7.82;3.95;;;1.40;89.80;;;;;;5061269;28;20053;-36
2021/04/16 02:18:36;;;;;;;6.78;3.97;;;1.40;89.30;;;;;;5066600;28;20060;-37
2021/04/16 02:21:09;;;;;;;;;;;1.30;89.20;;;;;;5065861;28;20095;-36
2021/04/16 02:23:42;;;;;;;7.80;3.67;;;1.40;90.50;;;;;;5066946;28;20303;-36
2021/04/16 02:26:11;;;;;;;8.63;4.82;;;1.30;89.60;;;;;;5066646;28;20797;-36
2021/04/16 02:28:39;;;;;;;7.10;4.85;;;1.30;90.10;;;;;;5066856;28;20049;-36
2021/04/16 02:31:05;;;;;;;7.70;4.53;;;1.20;90.00;;;;;;5064100;28;20059;-36
2021/04/16 02:33:38;;;;;;;7.40;4.47;;;1.10;89.30;;;;;;5068362;28;20071;-36
2021/04/16 02:36:07;;;;;;;9.18;4.57;;;1.20;90.50;;;;;;5066155;28;20060;-36
2021/04/16 02:38:39;;;;;;;9.95;4.47;;;1.20;90.50;;;;;;5066541;28;20564;-37
2021/04/16 02:41:09;;;;;;;6.90;4.55;;;1.10;90.40;;;;;;5065118;28;20573;-36
2021/04/16 02:43:38;;;;;;;9.32;5.07;;;1.10;90.40;;;;;;5066128;28;20063;-37
2021/04/16 02:46:11;;;;;;;13.35;5.45;;;1.20;90.80;;;;;;5065390;28;20075;-37
2021/04/16 02:48:37;;;;;;;10.43;5.80;;;1.20;91.30;;;;;;5066082;28;20077;-37
2021/04/16 02:51:04;;;;;;;8.40;5.78;;;1.20;91.30;;;;;;5065963;28;20532;-37
2021/04/16 02:53:34;;;;;;;11.45;6.05;;;1.30;91.00;;;;;;5065277;28;20052;-37
2021/04/16 02:56:04;;;;;;;11.35;5.50;;;1.30;91.40;;;;;;5066532;28;20393;-37
2021/04/16 02:58:36;;;;;;;12.70;5.75;;;1.30;90.90;;;;;;5066209;28;20509;-36
2021/04/16 03:01:05;;;;;;;11.05;5.55;;;1.20;90.70;;;;;;5066460;28;20048;-36
2021/04/16 03:03:37;;;;;;;7.38;5.00;;;1.20;90.90;;;;;;5065311;28;20049;-36
2021/04/16 03:06:09;;;;;;;;;;;1.20;91.00;;;;;;5066225;28;20084;-36
2021/04/16 03:08:37;;;;;;;12.02;5.25;;;1.10;91.60;;;;;;5066986;28;20373;-36
2021/04/16 03:11:09;;;;;;;14.82;5.72;;;1.10;91.00;;;;;;5067037;28;20131;-36
2021/04/16 03:13:38;;;;;;;12.73;5.53;;;1.10;90.60;;;;;;5063257;28;20051;-36
2021/04/16 03:16:05;;;;;;;8.77;4.72;;;1.00;90.60;;;;;;5065297;28;20070;-36
2021/04/16 03:18:32;;;;;;;12.90;5.78;;;1.10;90.80;;;;;;5065781;28;20048;-36
2021/04/16 03:21:04;;;;;;;13.20;5.97;;;1.00;90.40;;;;;;5072443;28;20046;-36
2021/04/16 03:23:33;;;;;;;10.50;5.82;;;0.90;90.20;;;;;;5050390;28;20040;-36
2021/04/16 03:26:02;;;;;;;6.82;5.25;;;0.90;90.30;;;;;;5061474;28;20066;-36
2021/04/16 03:28:32;;;;;;;9.38;5.93;;;0.90;90.50;;;;;;5065171;28;20049;-36
2021/04/16 03:31:02;;;;;;;8.50;5.82;;;0.90;90.60;;;;;;5070434;28;20111;-36
2021/04/16 03:33:31;;;;;;;9.55;5.40;;;0.90;90.80;;;;;;5064943;28;20057;-36
2021/04/16 03:35:58;;;;;;;10.13;5.25;;;0.90;90.80;;;;;;5063447;28;20126;-36
2021/04/16 03:38:26;;;;;;;8.52;5.60;;;0.80;91.10;;;;;;5065233;28;20084;-36
2021/04/16 03:40:55;;;;;;;10.80;5.95;;;0.80;90.90;;;;;;5069165;28;20052;-38
2021/04/16 03:43:27;;;;;;;9.90;5.93;;;0.80;91.10;;;;;;5062267;28;20045;-38
2021/04/16 03:45:57;;;;;;;11.90;5.35;;;0.80;90.80;;;;;;5069097;28;20044;-38
2021/04/16 03:48:27;;;;;;;14.15;6.72;;;0.80;91.00;;;;;;5066856;28;20080;-38
2021/04/16 03:50:55;;;;;;;9.60;5.78;;;0.80;90.90;;;;;;5066187;28;20052;-38
2021/04/16 03:53:24;;;;;;;8.82;6.40;;;0.70;90.90;;;;;;5065044;28;20098;-38
2021/04/16 03:55:51;;;;;;;8.55;6.00;;;0.70;91.10;;;;;;5063745;28;20039;-38
2021/04/16 03:58:27;;;;;;;10.13;5.75;;;0.70;90.90;;;;;;5065491;28;20059;-38
2021/04/16 04:00:55;;;;;;;12.07;5.97;;;0.70;90.70;;;;;;5066206;28;20051;-38
2021/04/16 04:03:28;;;;;;;9.05;5.90;;;0.70;90.70;;;;;;5058786;28;20067;-38
2021/04/16 04:05:55;;;;;;;8.63;5.55;;;0.60;91.00;;;;;;5065602;28;20136;-38
2021/04/16 04:08:22;;;;;;;9.95;5.53;;;0.60;91.00;;;;;;5064907;28;20091;-38
2021/04/16 04:10:52;;;;;;;9.82;5.95;;;0.60;90.90;;;;;;5064608;28;20056;-36
2021/04/16 04:13:19;;;;;;;9.60;5.68;;;0.60;90.90;;;;;;5068049;28;20064;-37
2021/04/16 04:15:49;;;;;;;9.85;5.60;;;0.70;90.70;;;;;;5059174;28;20053;-37
2021/04/16 04:18:18;;;;;;;8.13;6.03;;;0.70;90.70;;;;;;5061882;28;20048;-37
2021/04/16 04:20:47;;;;;;;9.40;6.05;;;0.70;90.40;;;;;;5063414;28;20048;-37
2021/04/16 04:23:14;;;;;;;9.70;6.05;;;0.60;90.40;;;;;;5068978;28;20049;-37
2021/04/16 04:25:41;;;;;;;9.98;6.28;;;0.70;90.70;;;;;;5062236;28;20056;-36
2021/04/16 04:28:08;;;;;;;10.23;6.53;;;0.70;90.30;;;;;;5064502;28;20053;-36
2021/04/16 04:30:40;;;;;;;12.50;6.93;;;0.70;90.40;;;;;;5065907;28;20674;-37
2021/04/16 04:33:09;;;;;;;10.93;7.32;;;0.70;91.00;;;;;;5067843;28;20041;-36
2021/04/16 04:35:42;;;;;;;15.02;7.63;;;0.70;91.80;;;;;;5062530;28;20102;-37
2021/04/16 04:38:14;;;;;;;11.43;7.07;;;0.70;92.00;;;;;;5066338;28;20184;-37
2021/04/16 04:40:44;;;;;;;11.65;7.78;;;0.70;91.70;;;;;;5067582;28;20125;-37
2021/04/16 04:43:11;;;;;;;13.13;7.13;;;0.80;91.60;;;;;;5067277;28;20045;-37
2021/04/16 04:45:40;;;;;;;13.57;6.38;;;0.80;91.90;;;;;;5061101;28;20049;-38
2021/04/16 04:48:10;;;;;;;12.15;6.63;;;0.80;91.90;;;;;;5072119;28;20036;-38
2021/04/16 04:50:40;;;;;;;9.65;6.13;;;0.80;91.70;;;;;;5067815;28;20044;-38
2021/04/16 04:53:09;;;;;;;10.65;6.80;;;0.70;91.60;;;;;;5069228;28;20070;-38
2021/04/16 04:55:39;;;;;;;11.23;7.03;;;0.70;91.50;;;;;;5065071;28;20376;-40
2021/04/16 04:58:08;;;;;;;11.93;7.10;;;0.80;91.70;;;;;;5067137;28;20463;-39
2021/04/16 05:00:41;;;;;;;10.85;6.68;;;0.90;91.60;;;;;;5063246;28;20117;-40
2021/04/16 05:03:13;;;;;;;;;;;0.90;91.30;;;;;;5065824;28;20052;-39
2021/04/16 05:05:48;;;;;;;8.23;5.80;;;1.10;91.70;;;;;;5065751;28;19959;-39
2021/04/16 05:08:18;;;;;;;14.07;6.80;;;1.00;91.20;;;;;;5066250;28;20041;-39
2021/04/16 05:10:47;;;;;;;11.60;7.35;;;1.00;90.90;;;;;;5066395;28;20138;-39
2021/04/16 05:13:20;;;;;;;11.68;6.97;;;1.10;90.60;;;;;;5064141;28;20064;-40
2021/04/16 05:15:49;;;;;;;11.60;8.55;;;1.10;90.70;;;;;;5066643;28;20037;-39
2021/04/16 05:18:16;;;;;;;13.05;7.38;;;1.20;91.20;;;;;;5065990;28;20140;-39
2021/04/16 05:20:46;;;;;;;13.73;7.57;;;1.30;91.60;;;;;;5063644;28;20131;-38
2021/04/16 05:23:17;;;;;;;13.52;7.43;;;1.40;91.80;;;;;;5071133;28;20093;-38
2021/04/16 05:25:49;;;;;;;14.60;7.75;;;1.50;91.90;;;;;;5064631;28;20105;-38
2021/04/16 05:28:17;;;;;;;12.45;7.78;;;1.60;91.70;;;;;;5065866;28;20063;-38
2021/04/16 05:30:46;;;;;;;15.65;8.95;;;1.70;91.50;;;;;;5065515;28;20056;-38
2021/04/16 05:33:17;;;;;;;18.05;9.88;;;1.90;91.20;;;;;;5064086;28;20412;-38
2021/04/16 05:35:46;;;;;;;27.98;12.02;;;1.90;91.20;;;;;;5065015;28;20083;-38
2021/04/16 05:38:13;;;;;;;25.70;12.38;;;1.90;91.40;;;;;;5067354;28;20052;-38
2021/04/16 05:40:45;;;;;;;26.73;12.52;;;2.00;91.40;;;;;;5065131;28;20044;-38
2021/04/16 05:43:15;;;;;;;29.15;13.48;;;2.20;91.40;;;;;;5065788;28;20048;-39
2021/04/16 05:45:44;;;;;;;26.40;11.98;;;2.40;91.50;;;;;;5063085;28;20044;-39
2021/04/16 05:48:13;;;;;;;30.40;11.70;;;2.60;91.50;;;;;;5066195;28;20071;-39
2021/04/16 05:50:45;;;;;;;18.88;7.97;;;2.80;91.70;;;;;;5065461;28;20044;-39
2021/04/16 05:53:17;;;;;;;17.67;6.00;;;3.10;91.90;;;;;;5081545;28;20102;-40
2021/04/16 05:55:47;;;;;;;16.70;6.00;;;3.30;92.00;;;;;;5065690;28;20044;-40
2021/04/16 05:58:20;;;;;;;15.35;6.20;;;3.60;91.70;;;;;;5064111;28;20045;-40
2021/04/16 06:00:52;;;;;;;13.68;6.03;;;3.80;91.60;;;;;;5066039;28;20131;-40
2021/04/16 06:03:19;;;;;;;15.50;5.82;;;4.00;91.50;;;;;;5061497;28;20079;-40
2021/04/16 06:05:49;;;;;;;12.80;5.85;;;4.30;91.20;;;;;;5061765;28;20063;-39
2021/04/16 06:08:20;;;;;;;27.77;15.30;;;4.50;91.00;;;;;;5063167;28;20076;-39
2021/04/16 06:10:52;;;;;;;62.65;45.65;;;4.70;91.30;;;;;;5063286;28;20071;-39
2021/04/16 06:13:22;;;;;;;24.80;14.10;;;4.90;90.90;;;;;;5070601;28;20048;-38
2021/04/16 06:15:54;;;;;;;21.25;11.48;;;5.10;90.70;;;;;;5056550;28;20131;-40
2021/04/16 06:18:25;;;;;;;16.48;10.88;;;5.30;90.50;;;;;;5046928;28;20164;-40
2021/04/16 06:20:55;;;;;;;19.83;13.35;;;5.50;90.00;;;;;;5060351;28;20055;-38
2021/04/16 06:23:25;;;;;;;20.52;12.13;;;5.60;90.00;;;;;;5064176;28;20582;-40
2021/04/16 06:25:59;;;;;;;19.13;8.73;;;5.90;89.30;;;;;;5057423;28;20045;-40
2021/04/16 06:28:38;;;;;;;10.93;6.13;;;6.00;89.40;;;;;;5046629;28;20056;-38
2021/04/16 06:31:16;;;;;;;61.85;42.97;;;6.20;88.30;;;;;;5054433;28;20049;-36
2021/04/16 06:33:42;;;;;;;19.13;12.70;;;6.50;88.70;;;;;;5068562;28;20052;-35
2021/04/16 06:36:16;;;;;;;33.55;21.10;;;6.60;88.10;;;;;;5060408;28;20047;-36
2021/04/16 06:38:47;;;;;;;24.13;17.52;;;6.80;86.60;;;;;;5064791;28;20550;-37
2021/04/16 06:41:32;;;;;;;;;;;7.00;86.80;;;;;;5055279;28;20058;-37
2021/04/16 06:44:04;;;;;;;18.50;10.27;;;7.20;83.90;;;;;;5062842;28;19921;-37
2021/04/16 06:46:37;;;;;;;17.15;12.38;;;7.50;86.40;;;;;;5051951;28;20053;-37
2021/04/16 06:49:50;;;;;;;10.23;5.20;;;7.70;85.30;;;;;;5065656;28;20049;-38
2021/04/16 06:52:38;;;;;;;39.55;28.83;;;8.10;83.40;;;;;;5002625;28;20054;-40
2021/04/16 06:55:30;;;;;;;33.30;23.02;;;8.40;83.30;;;;;;4997982;28;20046;-40
2021/04/16 06:58:03;;;;;;;24.17;14.07;;;8.70;82.90;;;;;;4992965;28;20568;-41
2021/04/16 07:00:53;;;;;;;11.20;5.22;;;8.90;81.10;;;;;;4992112;28;20046;-40
2021/04/16 07:03:30;;;;;;;45.25;34.80;;;9.20;80.80;;;;;;5001470;28;20060;-41
2021/04/16 07:06:07;;;;;;;11.73;6.05;;;9.50;79.60;;;;;;4995402;28;20332;-42
2021/04/16 07:08:45;;;;;;;12.65;4.70;;;9.90;78.60;;;;;;4999806;28;20046;-42
2021/04/16 07:11:34;;;;;;;19.23;11.57;;;10.30;77.20;;;;;;4975452;28;20057;-44
2021/04/16 07:14:03;;;;;;;15.18;8.77;;;10.70;73.70;;;;;;4979234;28;20158;-42
2021/04/16 07:16:37;;;;;;;51.22;38.53;;;10.90;74.80;;;;;;4961074;28;20054;-41
2021/04/16 07:19:24;;;;;;;10.80;5.43;;;11.30;73.20;;;;;;4964491;28;20053;-41
2021/04/16 07:22:02;;;;;;;27.73;18.90;;;11.70;69.10;;;;;;4982074;28;20518;-42
2021/04/16 07:24:29;;;;;;;16.25;9.65;;;12.00;69.10;;;;;;4978998;28;20050;-44
2021/04/16 07:26:58;;;;;;;43.85;31.58;;;12.20;70.60;;;;;;5029505;28;20607;-44
2021/04/16 07:29:44;;;;;;;20.60;14.20;;;12.50;69.10;;;;;;5039000;28;20045;-44
2021/04/16 07:32:25;;;;;;;13.95;8.32;;;12.70;64.80;;;;;;5038081;28;20041;-42
2021/04/16 07:34:51;;;;;;;25.85;17.13;;;12.80;67.20;;;;;;5038145;28;20052;-43
2021/04/16 07:37:23;;;;;;;30.95;23.75;;;12.90;65.00;;;;;;5036749;28;20053;-41
2021/04/16 07:40:05;;;;;;;8.23;4.88;;;12.90;63.80;;;;;;5034447;28;20053;-42
2021/04/16 07:42:43;;;;;;;;;;;12.90;60.00;;;;;;5027793;28;20050;-39
2021/04/16 07:45:25;;;;;;;20.75;17.30;;;12.80;57.40;;;;;;5059399;28;20007;-44
2021/04/16 07:48:20;;;;;;;10.88;6.90;;;13.20;59.70;;;;;;5031241;28;20079;-38
2021/04/16 07:50:55;;;;;;;7.93;4.90;;;13.40;56.60;;;;;;5045026;28;20045;-38
2021/04/16 07:53:46;;;;;;;14.63;9.18;;;13.50;60.20;;;;;;5033198;28;20452;-38
2021/04/16 07:56:12;;;;;;;29.30;21.10;;;13.90;54.80;;;;;;4992653;28;20054;-38
2021/04/16 07:59:10;;;;;;;14.32;8.30;;;14.20;58.90;;;;;;4993204;28;20616;-37
2021/04/16 08:01:39;;;;;;;9.70;6.32;;;14.50;53.80;;;;;;4984218;28;20062;-37
2021/04/16 08:04:21;;;;;;;39.78;35.42;;;14.80;54.70;;;;;;4971395;28;20054;-40
2021/04/16 08:06:50;;;;;;;14.82;11.43;;;14.80;47.20;;;;;;4984358;28;20530;-39
2021/04/16 08:09:28;;;;;;;14.55;10.80;;;15.20;51.50;;;;;;4985545;28;20113;-40
2021/04/16 08:12:02;;;;;;;23.05;17.90;;;15.30;49.20;;;;;;4989034;28;20049;-40
2021/04/16 08:14:33;;;;;;;20.00;13.82;;;15.20;44.90;;;;;;4986405;28;20104;-40
2021/04/16 08:17:10;;;;;;;6.93;3.25;;;15.30;48.00;;;;;;4986710;28;20042;-42
2021/04/16 08:19:38;;;;;;;5.88;3.90;;;15.70;45.40;;;;;;4985546;28;20047;-44
2021/04/16 08:22:28;;;;;;;9.50;7.70;;;16.00;42.50;;;;;;4974166;28;20490;-44
2021/04/16 08:24:58;;;;;;;6.97;4.88;;;16.10;41.20;;;;;;4981150;28;20541;-44
2021/04/16 08:27:49;;;;;;;14.43;8.38;;;15.80;42.20;;;;;;4984988;28;20061;-45
2021/04/16 08:30:25;;;;;;;6.07;3.67;;;15.90;41.10;;;;;;5000807;28;20479;-46
2021/04/16 08:32:57;;;;;;;5.15;2.03;;;16.30;41.30;;;;;;5004396;28;20059;-47
2021/04/16 08:35:45;;;;;;;4.20;2.63;;;16.60;42.00;;;;;;5044914;28;20055;-46
2021/04/16 08:38:16;;;;;;;6.20;3.75;;;16.80;39.30;;;;;;5046257;28;20052;-45
2021/04/16 08:40:51;;;;;;;4.80;2.08;;;16.60;40.90;;;;;;5041905;28;20397;-44
2021/04/16 08:43:38;;;;;;;17.38;12.98;;;16.70;40.10;;;;;;5034597;28;20334;-42
2021/04/16 08:46:30;;;;;;;25.17;20.85;;;16.70;36.50;;;;;;5046358;28;20049;-43
2021/04/16 08:49:05;;;;;;;21.92;16.67;;;16.90;36.60;;;;;;5048978;28;20052;-43
2021/04/16 08:51:35;;;;;;;17.88;15.85;;;16.90;38.60;;;;;;5044388;28;20049;-37
2021/04/16 08:54:24;;;;;;;17.38;15.52;;;16.70;37.80;;;;;;5038563;28;20084;-38
2021/04/16 08:57:08;;;;;;;13.35;10.95;;;16.80;37.70;;;;;;5034523;28;20040;-37
2021/04/16 09:00:00;;;;;;;9.63;6.38;;;17.00;36.10;;;;;;5047190;28;20049;-37
2021/04/16 09:02:52;;;;;;;6.13;3.13;;;17.00;37.20;;;;;;5040256;28;20048;-37
2021/04/16 09:05:33;;;;;;;7.53;6.13;;;16.80;38.10;;;;;;5049416;28;20052;-37
2021/04/16 09:08:08;;;;;;;6.82;4.00;;;17.10;37.50;;;;;;5046445;28;20044;-37
2021/04/16 09:10:38;;;;;;;7.63;3.55;;;17.10;35.00;;;;;;5047098;28;20063;-37
2021/04/16 09:13:43;;;;;;;6.53;1.65;;;17.10;37.30;;;;;;5047291;28;20084;-35
2021/04/16 09:16:19;;;;;;;5.07;1.95;;;17.50;37.00;;;;;;4992466;28;20054;-35
2021/04/16 09:18:53;;;;;;;5.43;1.60;;;17.40;35.70;;;;;;4993651;28;20065;-37
2021/04/16 09:21:33;;;;;;;5.68;2.28;;;17.30;36.80;;;;;;4988634;28;20050;-38
2021/04/16 09:24:11;;;;;;;3.88;1.70;;;17.60;36.00;;;;;;5002782;28;20565;-38
2021/04/16 09:26:51;;;;;;;5.10;1.85;;;17.30;36.50;;;;;;5001606;28;20145;-39
2021/04/16 09:29:32;;;;;;;4.53;1.35;;;17.30;35.70;;;;;;4998907;28;20631;-39
2021/04/16 09:32:04;;;;;;;3.75;1.98;;;17.50;36.90;;;;;;4986914;28;20050;-39
2021/04/16 09:34:42;;;;;;;3.50;1.60;;;17.80;37.10;;;;;;5002419;28;20046;-41
2021/04/16 09:37:37;;;;;;;6.60;1.75;;;17.90;36.50;;;;;;4979162;28;20049;-38
2021/04/16 09:40:25;;;;;;;19.73;15.30;;;18.00;34.90;;;;;;4991555;28;20049;-47
2021/04/16 09:42:53;;;;;;;19.17;17.13;;;18.30;36.10;;;;;;4993789;28;20089;-43
2021/04/16 09:45:28;;;;;;;34.63;29.88;;;18.40;35.90;;;;;;4991505;28;20053;-43
2021/04/16 09:48:04;;;;;;;13.25;10.40;;;18.60;35.20;;;;;;4985223;28;20153;-41
2021/04/16 09:50:40;;;;;;;39.10;34.22;;;18.30;33.90;;;;;;4969560;28;20055;-42
2021/04/16 09:53:23;;;;;;;25.05;19.15;;;18.40;34.10;;;;;;5027890;28;20830;-43
2021/04/16 09:55:58;;;;;;;11.68;8.55;;;18.50;35.10;;;;;;5029473;28;20045;-43
2021/04/16 09:58:42;;;;;;;10.32;9.25;;;18.40;33.60;;;;;;5046559;28;20048;-42
2021/04/16 10:01:22;;;;;;;6.88;4.28;;;18.60;33.70;;;;;;5046960;28;20501;-41
2021/04/16 10:03:56;;;;;;;7.72;4.45;;;18.40;33.70;;;;;;5050615;28;20064;-41
2021/04/16 10:06:28;;;;;;;7.80;4.18;;;17.90;33.20;;;;;;5045551;28;20088;-41
2021/04/16 10:09:16;;;;;;;6.43;2.75;;;18.00;34.50;;;;;;5028912;28;20517;-41
2021/04/16 10:11:55;;;;;;;3.08;1.45;;;18.20;33.20;;;;;;5052632;28;20127;-40
2021/04/16 10:14:34;;;;;;;60.17;51.58;;;18.50;33.30;;;;;;5029948;28;20553;-41
2021/04/16 10:17:18;;;;;;;4.43;2.38;;;18.60;33.70;;;;;;5033963;28;20092;-40
2021/04/16 10:20:05;;;;;;;36.85;32.78;;;18.60;33.60;;;;;;5032747;28;20060;-41
2021/04/16 10:22:44;;;;;;;14.40;12.32;;;18.40;33.80;;;;;;5041481;28;20086;-41
2021/04/16 10:52:45;;;;;;;7.95;6.28;;;20.10;32.90;;;;;;5046996;28;20041;-39
2021/04/16 10:57:45;;;;;;;7.15;5.25;;;20.40;32.40;;;;;;5046710;28;20052;-37
2021/04/16 12:38:31;;;;;;;13.43;8.95;;;16.90;37.90;;;;;;5045219;28;20106;-35
2021/04/16 12:41:31;;;;;;;14.88;11.45;;;17.30;37.70;;;;;;5042984;28;20128;-35
2021/04/16 12:43:59;;;;;;;12.18;7.97;;;17.30;36.60;;;;;;5042750;28;20064;-35
2021/04/16 12:46:33;;;;;;;39.22;32.42;;;16.90;37.00;;;;;;5042789;28;20061;-36
2021/04/16 12:49:04;;;;;;;17.95;11.80;;;16.50;38.40;;;;;;5046966;28;20049;-37
2021/04/16 12:51:30;;;;;;;12.15;6.65;;;16.20;39.10;;;;;;5047282;28;20045;-36
2021/04/16 12:53:57;;;;;;;8.77;5.68;;;16.10;39.00;;;;;;5048617;28;20044;-37
2021/04/16 12:56:40;;;;;;;9.70;6.10;;;16.40;38.70;;;;;;5048313;28;20139;-37
2021/04/16 12:59:17;;;;;;;9.90;4.85;;;16.30;39.20;;;;;;5048786;28;20052;-37
2021/04/16 13:01:49;;;;;;;7.03;4.30;;;16.30;39.70;;;;;;5048501;28;20532;-36
2021/04/16 13:04:18;;;;;;;11.52;6.40;;;16.20;39.60;;;;;;5053975;28;20056;-37
2021/04/16 13:06:49;;;;;;;5.60;2.85;;;16.00;40.00;;;;;;5049626;28;20048;-37
2021/04/16 13:09:18;;;;;;;5.93;2.20;;;15.80;40.20;;;;;;5048758;28;20051;-37
2021/04/16 13:11:48;;;;;;;6.13;3.00;;;15.60;39.40;;;;;;5048558;28;20313;-37
2021/04/16 13:14:19;;;;;;;7.75;4.13;;;15.90;40.40;;;;;;5051687;28;20047;-37
2021/04/16 13:16:46;;;;;;;5.90;3.38;;;16.40;40.00;;;;;;5048688;28;20049;-37
2021/04/16 13:19:29;;;;;;;7.60;2.72;;;17.30;38.50;;;;;;5048573;28;20057;-37
2021/04/16 13:22:06;;;;;;;5.43;2.83;;;17.50;37.40;;;;;;5045948;28;20382;-37
2021/04/16 13:24:38;;;;;;;11.77;4.90;;;17.00;36.80;;;;;;5039880;28;20426;-38
2021/04/16 13:27:10;;;;;;;24.27;19.40;;;16.80;38.40;;;;;;5042306;28;20052;-37
2021/04/16 13:29:40;;;;;;;17.35;12.07;;;16.30;38.60;;;;;;5047880;28;20053;-37
2021/04/16 13:32:12;;;;;;;47.88;39.88;;;16.00;40.30;;;;;;5034413;28;20053;-38
2021/04/16 13:34:39;;;;;;;;;;;16.00;39.00;;;;;;5039490;28;20084;-38
2021/04/16 13:37:08;;;;;;;29.63;22.58;;;16.50;39.30;;;;;;5048479;28;20016;-37
2021/04/16 13:39:35;;;;;;;28.10;19.35;;;17.70;38.60;;;;;;5048258;28;20055;-38
2021/04/16 13:42:01;;;;;;;13.57;8.63;;;18.60;36.60;;;;;;5050895;28;20479;-38
2021/04/16 13:44:31;;;;;;;11.02;7.45;;;19.40;36.30;;;;;;5048931;28;20155;-38
2021/04/16 13:47:06;;;;;;;18.80;14.98;;;18.90;34.50;;;;;;5042575;28;20045;-40
2021/04/16 13:49:37;;;;;;;25.83;21.35;;;18.10;35.10;;;;;;5050556;28;20064;-39
2021/04/16 13:52:05;;;;;;;18.02;14.55;;;17.30;36.30;;;;;;5046535;28;20059;-39
2021/04/16 13:54:33;;;;;;;29.38;22.73;;;16.80;37.20;;;;;;5046768;28;20045;-38
2021/04/16 13:57:00;;;;;;;42.78;35.33;;;16.20;38.00;;;;;;5048361;28;20052;-38
2021/04/16 13:59:27;;;;;;;27.33;22.50;;;16.90;38.90;;;;;;5047984;28;20056;-39
2021/04/16 14:01:54;;;;;;;27.00;19.48;;;17.10;37.70;;;;;;5047090;28;20053;-38
2021/04/16 14:04:33;;;;;;;30.60;26.13;;;17.30;36.90;;;;;;5046570;28;20493;-39
2021/04/16 14:07:00;;;;;;;65.35;55.28;;;17.80;37.00;;;;;;5045186;28;20065;-40
2021/04/16 14:09:28;;;;;;;14.38;11.05;;;18.50;36.10;;;;;;5045955;28;20500;-39
2021/04/16 14:11:55;;;;;;;47.95;41.20;;;18.70;34.90;;;;;;5046730;28;20049;-40
2021/04/16 14:14:28;;;;;;;18.23;14.18;;;19.10;34.50;;;;;;5047304;28;20052;-39
2021/04/16 14:17:11;;;;;;;44.65;39.42;;;20.40;33.40;;;;;;5045103;28;20564;-40
2021/04/16 14:19:56;;;;;;;14.52;9.77;;;21.10;32.50;;;;;;5059820;28;20052;-38
2021/04/16 14:22:29;;;;;;;10.43;4.40;;;20.60;29.60;;;;;;5045293;28;20056;-39
2021/04/16 14:24:56;;;;;;;6.18;3.55;;;20.60;30.70;;;;;;5047521;28;20119;-38
2021/04/16 14:27:23;;;;;;;7.00;4.07;;;20.60;30.10;;;;;;5046424;28;20760;-38
2021/04/16 14:29:50;;;;;;;8.52;3.90;;;19.60;30.40;;;;;;5046634;28;20056;-38
2021/04/16 14:32:24;;;;;;;5.05;3.30;;;19.30;31.50;;;;;;5047643;28;20049;-39
2021/04/16 14:34:56;;;;;;;6.32;3.42;;;19.50;30.70;;;;;;5046137;28;20067;-38
2021/04/16 14:37:28;;;;;;;22.85;18.15;;;19.60;30.80;;;;;;5062759;28;20153;-38
2021/04/16 14:39:57;;;;;;;21.60;17.33;;;19.80;30.30;;;;;;5047664;28;20056;-38
2021/04/16 14:42:29;;;;;;;10.52;6.90;;;20.10;31.00;;;;;;5052234;28;20397;-38
2021/04/16 14:44:58;;;;;;;10.73;7.85;;;20.00;30.90;;;;;;5047655;28;20508;-38
2021/04/16 14:47:24;;;;;;;12.13;6.10;;;19.80;30.90;;;;;;5043646;28;20060;-38
2021/04/16 14:49:52;;;;;;;8.60;4.07;;;19.90;31.10;;;;;;5041866;28;20052;-38
2021/04/16 14:52:24;;;;;;;11.80;5.13;;;19.50;31.10;;;;;;5045863;28;20056;-38
2021/04/16 14:54:53;;;;;;;12.38;9.27;;;19.90;31.60;;;;;;5052454;28;20049;-39
2021/04/16 14:57:29;;;;;;;8.85;5.25;;;19.80;31.80;;;;;;5046100;28;20052;-38
2021/04/16 14:59:58;;;;;;;12.82;9.40;;;19.40;33.30;;;;;;5047793;28;20055;-38
2021/04/16 15:02:24;;;;;;;6.38;3.78;;;19.40;32.60;;;;;;5047939;28;20045;-38
2021/04/16 15:04:54;;;;;;;8.40;5.47;;;18.60;32.40;;;;;;5046024;28;20049;-38
2021/04/16 15:07:36;;;;;;;5.93;2.80;;;18.30;34.10;;;;;;5043914;28;20094;-38
2021/04/16 15:10:11;;;;;;;7.95;5.05;;;18.40;32.60;;;;;;5029369;28;20084;-38
2021/04/16 15:12:45;;;;;;;8.63;3.70;;;18.20;33.30;;;;;;5044379;28;20075;-38
2021/04/16 15:15:47;;;;;;;15.63;10.57;;;17.20;34.30;;;;;;5051846;28;20587;-39
2021/04/16 15:18:20;;;;;;;18.38;13.85;;;17.40;34.80;;;;;;5031592;28;20135;-40
2021/04/16 15:20:58;;;;;;;17.58;12.70;;;17.60;34.30;;;;;;5043674;28;20054;-39
2021/04/16 15:23:47;;;;;;;20.45;15.93;;;18.10;33.70;;;;;;5043850;28;20114;-39
2021/04/16 15:26:32;;;;;;;8.25;2.97;;;18.10;34.40;;;;;;5047957;28;20044;-38